createdAt,value
2023-03-16T00:01:55.025Z,67.78
2023-03-16T00:04:27.172Z,67.79
2023-03-16T00:06:59.680Z,67.83
2023-03-16T00:09:31.845Z,67.79
2023-03-16T00:12:04.718Z,67.55
2023-03-16T00:14:36.699Z,67.85
2023-03-16T00:17:08.835Z,67.95
2023-03-16T00:19:42.613Z,68.26
2023-03-16T00:22:16.630Z,68.73
2023-03-16T00:24:48.772Z,69.32
2023-03-16T00:27:23.141Z,70.12
2023-03-16T00:29:58.649Z,70.32
2023-03-16T00:32:33.479Z,70.72
2023-03-16T00:35:09.352Z,71.00
2023-03-16T00:37:43.069Z,71.35
2023-03-16T00:40:16.836Z,71.80
2023-03-16T00:42:48.966Z,71.79
2023-03-16T00:45:21.407Z,71.90
2023-03-16T00:47:54.371Z,71.66
2023-03-16T00:50:27.478Z,71.53
2023-03-16T00:53:00.029Z,71.48
2023-03-16T00:55:32.308Z,71.30
2023-03-16T00:58:05.218Z,71.11
2023-03-16T01:00:37.279Z,71.25
2023-03-16T01:03:09.364Z,71.15
2023-03-16T01:05:44.440Z,71.12
2023-03-16T01:08:16.723Z,71.50
2023-03-16T01:10:48.843Z,71.10
2023-03-16T01:13:21.517Z,71.47
2023-03-16T01:15:54.093Z,71.61
2023-03-16T01:18:26.306Z,71.84
2023-03-16T01:20:58.256Z,71.85
2023-03-16T01:23:31.609Z,71.65
2023-03-16T01:26:03.656Z,71.81
2023-03-16T01:28:35.839Z,71.61
2023-03-16T01:31:10.573Z,71.55
2023-03-16T01:33:43.833Z,71.85
2023-03-16T01:36:20.238Z,71.50
2023-03-16T01:38:54.226Z,71.57
2023-03-16T01:41:27.829Z,71.55
2023-03-16T01:43:59.808Z,71.50
2023-03-16T01:46:33.985Z,71.37
2023-03-16T01:49:17.906Z,71.26
2023-03-16T01:51:56.687Z,71.44
2023-03-16T01:54:52.899Z,71.48
2023-03-16T01:57:30.832Z,71.64
2023-03-16T02:00:13.885Z,70.69
2023-03-16T02:02:53.180Z,71.17
2023-03-16T02:05:29.892Z,71.30
2023-03-16T02:08:04.031Z,71.61
2023-03-16T02:10:38.094Z,71.37
2023-03-16T02:13:10.132Z,71.72
2023-03-16T02:15:42.501Z,71.64
2023-03-16T02:18:16.086Z,71.65
2023-03-16T02:20:59.728Z,71.80
2023-03-16T02:23:32.798Z,72.00
2023-03-16T02:26:19.631Z,71.81
2023-03-16T02:29:11.355Z,71.83
2023-03-16T02:31:43.761Z,71.98
2023-03-16T02:34:18.399Z,72.01
2023-03-16T02:36:52.750Z,71.91
2023-03-16T02:39:26.613Z,71.78
2023-03-16T02:41:58.973Z,71.74
2023-03-16T02:44:37.226Z,71.86
2023-03-16T02:47:12.380Z,71.63
2023-03-16T02:49:46.363Z,71.64
2023-03-16T02:52:19.810Z,71.68
2023-03-16T02:54:51.934Z,71.56
2023-03-16T02:57:24.416Z,71.70
2023-03-16T02:59:57.911Z,71.74
2023-03-16T03:02:30.762Z,71.51
2023-03-16T03:05:02.782Z,71.69
2023-03-16T03:07:34.861Z,71.75
2023-03-16T03:10:09.384Z,71.51
2023-03-16T03:12:42.523Z,71.50
2023-03-16T03:15:14.932Z,71.36
2023-03-16T03:17:49.016Z,71.26
2023-03-16T03:20:21.753Z,71.26
2023-03-16T03:22:54.004Z,71.22
2023-03-16T03:25:25.949Z,71.26
2023-03-16T03:28:00.411Z,71.26
2023-03-16T03:30:32.748Z,71.49
2023-03-16T03:33:05.224Z,71.55
2023-03-16T03:35:37.519Z,71.20
2023-03-16T03:38:09.921Z,71.39
2023-03-16T03:40:42.218Z,71.44
2023-03-16T03:43:14.380Z,71.74
2023-03-16T03:45:47.114Z,72.53
2023-03-16T03:48:20.570Z,72.80
2023-03-16T03:50:52.824Z,73.49
2023-03-16T03:53:35.849Z,73.82
2023-03-16T03:56:09.814Z,74.11
2023-03-16T03:58:43.233Z,73.87
2023-03-16T04:01:15.909Z,74.67
2023-03-16T04:03:48.312Z,74.66
2023-03-16T04:06:21.255Z,74.70
2023-03-16T04:08:55.215Z,74.95
2023-03-16T04:11:29.158Z,74.86
2023-03-16T04:14:01.235Z,74.46
2023-03-16T04:16:34.688Z,74.61
2023-03-16T04:19:06.818Z,74.71
2023-03-16T04:21:39.130Z,75.02
2023-03-16T04:24:12.925Z,74.88
2023-03-16T04:26:46.214Z,74.69
2023-03-16T04:29:18.884Z,74.74
2023-03-16T04:31:53.088Z,74.23
2023-03-16T04:34:25.835Z,74.39
2023-03-16T04:36:59.633Z,74.72
2023-03-16T04:39:31.989Z,74.38
2023-03-16T04:42:05.392Z,74.24
2023-03-16T04:44:39.209Z,74.00
2023-03-16T04:47:12.775Z,74.33
2023-03-16T04:49:46.204Z,74.27
2023-03-16T04:52:19.417Z,74.25
2023-03-16T04:54:52.015Z,73.87
2023-03-16T04:57:25.287Z,73.51
2023-03-16T04:59:59.247Z,73.49
2023-03-16T05:02:33.652Z,73.83
2023-03-16T05:05:09.330Z,73.74
2023-03-16T05:07:44.232Z,73.53
2023-03-16T05:10:19.042Z,73.58
2023-03-16T05:12:51.455Z,73.89
2023-03-16T05:15:30.873Z,73.40
2023-03-16T05:18:03.799Z,73.55
2023-03-16T05:20:36.231Z,73.88
2023-03-16T05:23:08.777Z,73.65
2023-03-16T05:25:43.977Z,73.35
2023-03-16T05:28:18.903Z,73.56
2023-03-16T05:30:52.742Z,73.26
2023-03-16T05:33:26.891Z,73.18
2023-03-16T05:36:03.574Z,73.43
2023-03-16T05:38:37.268Z,73.07
2023-03-16T05:41:10.598Z,73.10
2023-03-16T05:43:56.599Z,73.08
2023-03-16T05:46:30.799Z,73.03
2023-03-16T05:49:05.142Z,73.05
2023-03-16T05:51:37.608Z,72.80
2023-03-16T05:54:23.074Z,72.40
2023-03-16T05:56:56.056Z,72.35
2023-03-16T05:59:28.413Z,72.37
2023-03-16T06:02:01.708Z,72.09
2023-03-16T06:04:34.191Z,71.93
2023-03-16T06:07:06.814Z,71.90
2023-03-16T06:09:39.449Z,72.40
2023-03-16T06:12:13.708Z,72.13
2023-03-16T06:14:46.525Z,71.63
2023-03-16T06:17:20.546Z,71.22
2023-03-16T06:19:53.634Z,70.66
2023-03-16T06:22:26.164Z,70.25
2023-03-16T06:24:58.076Z,70.79
2023-03-16T06:27:30.643Z,71.56
2023-03-16T06:30:05.256Z,71.61
2023-03-16T06:32:39.084Z,72.00
2023-03-16T06:35:12.025Z,72.14
2023-03-16T06:37:45.136Z,72.88
2023-03-16T06:40:28.026Z,72.05
2023-03-16T06:43:00.913Z,72.15
2023-03-16T06:45:33.832Z,72.38
2023-03-16T06:48:07.962Z,72.92
2023-03-16T06:50:41.519Z,73.22
2023-03-16T06:53:14.221Z,73.19
2023-03-16T06:55:47.030Z,73.74
2023-03-16T06:58:20.116Z,73.44
2023-03-16T07:00:54.391Z,73.25
2023-03-16T07:03:26.561Z,73.20
2023-03-16T07:06:00.441Z,72.28
2023-03-16T07:08:32.808Z,72.24
2023-03-16T07:11:05.640Z,71.96
2023-03-16T07:13:38.555Z,72.08
2023-03-16T07:16:10.962Z,71.54
2023-03-16T07:18:44.604Z,71.93
2023-03-16T07:21:18.581Z,71.72
2023-03-16T07:23:51.966Z,71.14
2023-03-16T07:26:26.268Z,71.13
2023-03-16T07:29:01.737Z,70.75
2023-03-16T07:31:35.647Z,70.27
2023-03-16T07:34:09.704Z,69.60
2023-03-16T07:36:44.014Z,69.59
2023-03-16T07:39:17.848Z,69.30
2023-03-16T07:41:51.549Z,68.66
2023-03-16T07:44:25.556Z,68.29
2023-03-16T07:46:59.180Z,68.40
2023-03-16T07:49:32.557Z,68.57
2023-03-16T07:52:05.341Z,69.23
2023-03-16T07:54:39.666Z,67.49
2023-03-16T07:57:13.157Z,68.60
2023-03-16T07:59:48.289Z,67.27
2023-03-16T08:02:22.926Z,66.71
2023-03-16T08:04:56.432Z,65.36
2023-03-16T08:07:29.581Z,65.59
2023-03-16T08:10:03.733Z,65.34
2023-03-16T08:12:40.768Z,65.90
2023-03-16T08:15:13.815Z,66.32
2023-03-16T08:17:46.964Z,65.84
2023-03-16T08:20:19.912Z,65.62
2023-03-16T08:22:52.428Z,65.96
2023-03-16T08:25:26.850Z,65.37
2023-03-16T08:28:04.538Z,65.77
2023-03-16T08:30:38.274Z,65.65
2023-03-16T08:33:12.498Z,66.11
2023-03-16T08:35:48.398Z,68.10
2023-03-16T08:38:21.352Z,68.18
2023-03-16T08:40:54.064Z,68.16
2023-03-16T08:43:28.502Z,67.63
2023-03-16T08:46:02.162Z,68.31
2023-03-16T08:48:36.478Z,68.31
2023-03-16T08:51:10.600Z,68.32
2023-03-16T08:53:42.686Z,68.48
2023-03-16T08:56:16.385Z,68.13
2023-03-16T08:58:50.535Z,68.47
2023-03-16T09:01:22.579Z,68.55
2023-03-16T09:03:55.245Z,68.22
2023-03-16T09:06:28.150Z,67.65
2023-03-16T09:09:00.464Z,67.55
2023-03-16T09:11:34.060Z,68.05
2023-03-16T09:14:07.508Z,68.16
2023-03-16T09:16:39.803Z,68.83
2023-03-16T09:19:12.059Z,68.83
2023-03-16T09:21:47.293Z,69.47
2023-03-16T09:24:19.056Z,69.56
2023-03-16T09:26:51.316Z,69.03
2023-03-16T09:29:24.059Z,68.95
2023-03-16T09:31:56.227Z,68.48
2023-03-16T09:34:29.462Z,67.80
2023-03-16T09:37:03.029Z,67.99
2023-03-16T09:39:35.823Z,67.85
2023-03-16T09:42:22.834Z,68.13
2023-03-16T09:45:04.319Z,68.31
2023-03-16T09:47:39.094Z,68.02
2023-03-16T09:50:14.895Z,68.89
2023-03-16T09:52:58.831Z,69.55
2023-03-16T09:55:38.019Z,69.40
2023-03-16T09:58:13.573Z,68.18
2023-03-16T10:00:49.389Z,67.43
2023-03-16T10:03:54.480Z,68.26
2023-03-16T10:06:27.770Z,67.07
2023-03-16T10:09:06.203Z,67.38
2023-03-16T10:11:47.416Z,68.26
2023-03-16T10:14:25.591Z,68.77
2023-03-16T10:17:04.621Z,68.80
2023-03-16T10:19:51.709Z,69.07
2023-03-16T10:22:27.770Z,69.29
2023-03-16T10:25:03.125Z,69.15
2023-03-16T10:27:38.894Z,69.62
2023-03-16T10:30:22.725Z,69.95
2023-03-16T10:32:55.192Z,70.14
2023-03-16T10:35:34.184Z,70.20
2023-03-16T10:38:07.851Z,70.68
2023-03-16T10:40:41.315Z,70.16
2023-03-16T10:43:15.629Z,70.80
2023-03-16T10:45:48.606Z,70.75
2023-03-16T10:48:22.669Z,70.33
2023-03-16T10:50:58.489Z,70.05
2023-03-16T10:53:36.965Z,70.61
2023-03-16T10:56:22.849Z,70.46
2023-03-16T10:58:55.388Z,71.02
2023-03-16T11:01:32.432Z,71.23
2023-03-16T11:04:06.149Z,71.58
2023-03-16T11:06:40.623Z,71.75
2023-03-16T11:09:18.853Z,71.96
2023-03-16T11:11:51.937Z,70.78
2023-03-16T11:14:26.778Z,70.42
2023-03-16T11:17:03.547Z,70.34
2023-03-16T11:19:40.367Z,70.41
2023-03-16T11:22:19.139Z,69.64
2023-03-16T11:25:10.555Z,70.41
2023-03-16T11:28:13.537Z,69.74
2023-03-16T11:30:52.029Z,69.56
2023-03-16T11:33:26.599Z,69.57
2023-03-16T11:36:21.914Z,69.69
2023-03-16T11:39:06.461Z,70.29
2023-03-16T11:41:41.516Z,70.87
2023-03-16T11:44:31.588Z,69.94
2023-03-16T11:47:09.577Z,70.28
2023-03-16T11:49:53.970Z,70.03
2023-03-16T11:52:53.425Z,70.52
2023-03-16T11:55:34.376Z,69.64
2023-03-16T11:58:28.557Z,69.73
2023-03-16T12:01:16.232Z,69.85
2023-03-16T12:04:13.758Z,69.75
2023-03-16T12:07:06.798Z,70.08
2023-03-16T12:09:48.297Z,71.05
2023-03-16T12:12:33.403Z,71.40
2023-03-16T12:15:36.180Z,71.62
2023-03-16T12:18:11.401Z,72.19
2023-03-16T12:20:49.124Z,72.23
2023-03-16T12:23:36.212Z,71.91
2023-03-16T12:26:09.624Z,71.63
2023-03-16T12:28:44.373Z,71.33
2023-03-16T12:31:22.060Z,71.21
2023-03-16T12:34:08.837Z,71.27
2023-03-16T12:36:46.703Z,71.65
2023-03-16T12:39:27.776Z,70.96
2023-03-16T12:42:03.184Z,70.83
2023-03-16T12:44:41.504Z,70.88
2023-03-16T12:47:28.619Z,70.90
2023-03-16T12:50:09.687Z,70.81
2023-03-16T12:52:47.805Z,70.77
2023-03-16T12:55:22.881Z,71.21
2023-03-16T12:58:03.901Z,71.98
2023-03-16T13:00:39.251Z,73.02
2023-03-16T13:03:20.840Z,72.81
2023-03-16T13:05:56.412Z,72.45
2023-03-16T13:08:29.809Z,72.74
2023-03-16T13:11:05.271Z,73.04
2023-03-16T13:13:39.705Z,73.07
2023-03-16T13:16:14.513Z,73.07
2023-03-16T13:18:47.895Z,73.54
2023-03-16T13:21:41.378Z,73.63
2023-03-16T13:24:25.445Z,73.91
2023-03-16T13:27:03.943Z,74.22
2023-03-16T13:29:38.977Z,73.91
2023-03-16T13:32:14.434Z,74.04
2023-03-16T13:34:50.155Z,74.30
2023-03-16T13:37:24.591Z,74.76
2023-03-16T13:39:57.638Z,74.89
2023-03-16T13:42:33.863Z,74.44
2023-03-16T13:45:14.472Z,74.26
2023-03-16T13:47:48.671Z,74.45
2023-03-16T13:50:21.727Z,74.11
2023-03-16T13:52:57.181Z,74.17
2023-03-16T13:55:32.489Z,74.18
2023-03-16T13:58:07.045Z,74.44
2023-03-16T14:00:40.781Z,74.78
2023-03-16T14:03:19.558Z,74.58
2023-03-16T14:05:52.467Z,74.78
2023-03-16T14:08:27.142Z,75.00
2023-03-16T14:11:01.469Z,75.25
2023-03-16T14:13:37.498Z,75.92
2023-03-16T14:16:16.053Z,75.91
2023-03-16T14:18:52.156Z,76.57
2023-03-16T14:21:27.220Z,76.89
2023-03-16T14:24:08.047Z,77.43
2023-03-16T14:26:49.450Z,77.72
2023-03-16T14:29:32.547Z,77.71
2023-03-16T14:32:06.672Z,78.24
2023-03-16T14:34:41.224Z,77.47
2023-03-16T14:37:17.258Z,78.11
2023-03-16T14:40:01.335Z,78.04
2023-03-16T14:42:34.828Z,77.88
2023-03-16T14:45:14.400Z,77.22
2023-03-16T14:47:49.965Z,77.11
2023-03-16T14:50:26.682Z,76.91
2023-03-16T14:52:59.792Z,76.32
2023-03-16T14:55:32.374Z,76.21
2023-03-16T14:58:04.781Z,76.31
2023-03-16T15:00:50.228Z,75.52
2023-03-16T15:03:17.553Z,76.04
2023-03-16T15:05:52.742Z,76.19
2023-03-16T15:08:29.250Z,75.67
2023-03-16T15:11:06.037Z,75.89
2023-03-16T15:13:42.733Z,76.09
2023-03-16T15:16:15.609Z,75.99
2023-03-16T15:18:48.342Z,75.92
2023-03-16T15:21:26.595Z,75.57
2023-03-16T15:23:59.083Z,75.38
2023-03-16T15:26:31.676Z,75.94
2023-03-16T15:29:04.946Z,75.68
2023-03-16T15:31:38.254Z,75.72
2023-03-16T15:34:10.952Z,75.67
2023-03-16T15:36:44.051Z,76.03
2023-03-16T15:39:25.398Z,76.28
2023-03-16T15:41:57.729Z,75.57
2023-03-16T15:44:30.535Z,75.39
2023-03-16T15:47:03.455Z,75.97
2023-03-16T15:49:47.246Z,76.28
2023-03-16T15:52:23.123Z,75.95
2023-03-16T15:54:56.978Z,76.03
2023-03-16T15:57:29.634Z,75.69
2023-03-16T16:00:01.939Z,75.88
2023-03-16T16:02:35.609Z,75.77
2023-03-16T16:05:07.981Z,75.40
2023-03-16T16:07:40.216Z,75.38
2023-03-16T16:10:14.747Z,75.62
2023-03-16T16:12:50.281Z,75.59
2023-03-16T16:15:37.751Z,75.85
2023-03-16T16:18:35.623Z,75.76
2023-03-16T16:21:11.282Z,75.64
2023-03-16T16:23:44.677Z,75.51
2023-03-16T16:26:19.957Z,74.81
2023-03-16T16:28:53.076Z,74.52
2023-03-16T16:31:26.378Z,74.23
2023-03-16T16:33:59.486Z,74.75
2023-03-16T16:36:32.807Z,75.26
2023-03-16T16:39:06.251Z,74.88
2023-03-16T16:41:39.797Z,75.12
2023-03-16T16:44:24.006Z,74.77
2023-03-16T16:46:56.934Z,74.66
2023-03-16T16:49:31.267Z,74.88
2023-03-16T16:52:03.954Z,75.00
2023-03-16T16:54:37.301Z,75.32
2023-03-16T16:57:12.595Z,75.20
2023-03-16T16:59:47.184Z,74.54
2023-03-16T17:02:39.313Z,74.66
2023-03-16T17:05:13.337Z,74.49
2023-03-16T17:07:45.760Z,74.59
2023-03-16T17:10:21.508Z,74.61
2023-03-16T17:12:57.774Z,74.53
2023-03-16T17:15:32.536Z,74.84
2023-03-16T17:18:08.055Z,74.77
2023-03-16T17:20:53.768Z,74.79
2023-03-16T17:23:33.516Z,74.63
2023-03-16T17:26:17.779Z,74.88
2023-03-16T17:28:53.193Z,74.80
2023-03-16T17:31:27.957Z,75.03
2023-03-16T17:34:02.472Z,74.55
2023-03-16T17:36:36.244Z,74.80
2023-03-16T17:39:23.175Z,74.62
2023-03-16T17:42:00.845Z,75.10
2023-03-16T17:44:36.322Z,75.19
2023-03-16T17:47:23.545Z,75.63
2023-03-16T17:49:57.304Z,75.68
2023-03-16T17:52:31.668Z,75.04
2023-03-16T17:55:03.768Z,75.04
2023-03-16T17:57:37.242Z,75.84
2023-03-16T18:00:24.675Z,75.12
2023-03-16T18:03:04.606Z,75.25
2023-03-16T18:05:38.199Z,76.20
2023-03-16T18:08:32.491Z,75.88
2023-03-16T18:11:07.627Z,76.46
2023-03-16T18:13:41.727Z,76.17
2023-03-16T18:16:18.109Z,75.84
2023-03-16T18:18:51.112Z,76.27
2023-03-16T18:21:24.822Z,76.07
2023-03-16T18:23:57.104Z,76.59
2023-03-16T18:26:29.836Z,76.44
2023-03-16T18:29:02.144Z,76.64
2023-03-16T18:31:34.243Z,76.72
2023-03-16T18:34:09.231Z,76.60
2023-03-16T18:36:43.089Z,77.12
2023-03-16T18:39:20.924Z,76.25
2023-03-16T18:41:55.477Z,76.14
2023-03-16T18:44:28.642Z,77.03
2023-03-16T18:47:03.768Z,76.99
2023-03-16T18:49:38.092Z,77.28
2023-03-16T18:52:15.671Z,77.08
2023-03-16T18:54:48.367Z,77.04
2023-03-16T18:57:24.490Z,77.03
2023-03-16T18:59:57.230Z,77.50
2023-03-16T19:02:39.005Z,77.69
2023-03-16T19:05:19.744Z,77.46
2023-03-16T19:07:53.851Z,77.70
2023-03-16T19:10:26.892Z,77.35
2023-03-16T19:12:59.130Z,76.63
2023-03-16T19:15:35.671Z,76.76
2023-03-16T19:18:08.349Z,77.23
2023-03-16T19:20:42.951Z,77.79
2023-03-16T19:23:24.573Z,77.92
2023-03-16T19:25:58.213Z,77.96
2023-03-16T19:28:39.751Z,77.97
2023-03-16T19:31:27.148Z,78.03
2023-03-16T19:34:00.804Z,77.87
2023-03-16T19:36:34.226Z,77.71
2023-03-16T19:39:06.095Z,77.69
2023-03-16T19:41:40.018Z,77.70
2023-03-16T19:44:27.017Z,77.12
2023-03-16T19:47:00.792Z,77.29
2023-03-16T19:49:33.120Z,76.92
2023-03-16T19:52:07.617Z,77.20
2023-03-16T19:54:41.393Z,77.52
2023-03-16T19:57:19.360Z,77.38
2023-03-16T19:59:54.865Z,77.69
2023-03-16T20:02:38.935Z,77.10
2023-03-16T20:05:14.022Z,76.69
2023-03-16T20:07:46.169Z,76.20
2023-03-16T20:10:20.754Z,76.92
2023-03-16T20:12:55.575Z,77.05
2023-03-16T20:15:32.401Z,76.46
2023-03-16T20:18:05.392Z,76.03
2023-03-16T20:20:37.717Z,76.35
2023-03-16T20:23:26.656Z,76.72
2023-03-16T20:26:03.243Z,76.67
2023-03-16T20:28:37.507Z,76.24
2023-03-16T20:31:13.027Z,76.47
2023-03-16T20:33:45.237Z,76.55
2023-03-16T20:36:17.714Z,76.22
2023-03-16T20:38:50.412Z,76.02
2023-03-16T20:41:32.444Z,76.16
2023-03-16T20:44:04.955Z,75.67
2023-03-16T20:46:38.856Z,75.71
2023-03-16T20:49:25.521Z,75.31
2023-03-16T20:51:57.758Z,75.47
2023-03-16T20:54:29.868Z,75.48
2023-03-16T20:57:01.801Z,75.41
2023-03-16T20:59:34.743Z,75.32
2023-03-16T21:02:27.411Z,75.39
2023-03-16T21:05:01.132Z,75.36
2023-03-16T21:07:34.028Z,75.41
2023-03-16T21:10:06.719Z,75.19
2023-03-16T21:12:42.362Z,74.69
2023-03-16T21:15:20.875Z,74.47
2023-03-16T21:17:58.507Z,74.25
2023-03-16T21:20:33.002Z,74.46
2023-03-16T21:23:05.430Z,74.54
2023-03-16T21:25:40.477Z,74.59
2023-03-16T21:28:14.233Z,74.66
2023-03-16T21:30:55.310Z,74.52
2023-03-16T21:33:32.953Z,74.43
2023-03-16T21:36:08.242Z,74.48
2023-03-16T21:38:40.098Z,74.74
2023-03-16T21:41:12.400Z,74.38
2023-03-16T21:43:44.456Z,74.24
2023-03-16T21:46:19.227Z,74.30
2023-03-16T21:48:54.783Z,74.05
2023-03-16T21:51:31.535Z,74.32
2023-03-16T21:54:03.957Z,74.45
2023-03-16T21:56:36.152Z,74.10
2023-03-16T21:59:08.378Z,74.14
2023-03-16T22:01:54.598Z,73.99
2023-03-16T22:04:18.160Z,73.88
2023-03-16T22:06:49.503Z,73.86
2023-03-16T22:09:22.919Z,73.82
2023-03-16T22:11:54.668Z,73.18
2023-03-16T22:14:27.373Z,73.86
2023-03-16T22:16:59.529Z,73.60
2023-03-16T22:19:31.506Z,73.68
2023-03-16T22:22:03.494Z,73.64
2023-03-16T22:24:37.127Z,73.82
2023-03-16T22:27:12.947Z,73.72
2023-03-16T22:29:44.959Z,73.99
2023-03-16T22:32:19.707Z,73.68
2023-03-16T22:34:57.030Z,73.50
2023-03-16T22:37:30.436Z,73.57
2023-03-16T22:40:03.893Z,73.41
2023-03-16T22:42:40.705Z,73.06
2023-03-16T22:45:24.630Z,72.98
2023-03-16T22:47:58.105Z,73.06
2023-03-16T22:50:33.229Z,72.77
2023-03-16T22:53:08.339Z,72.97
2023-03-16T22:55:41.467Z,73.01
2023-03-16T22:58:22.076Z,72.96
2023-03-16T23:00:55.188Z,73.21
2023-03-16T23:03:27.558Z,73.29
2023-03-16T23:05:59.836Z,73.43
2023-03-16T23:08:31.746Z,73.18
2023-03-16T23:11:04.516Z,73.00
2023-03-16T23:13:37.578Z,72.98
2023-03-16T23:16:12.740Z,73.29
2023-03-16T23:18:44.655Z,73.29
2023-03-16T23:21:18.925Z,73.16
2023-03-16T23:24:03.016Z,73.01
2023-03-16T23:26:27.581Z,72.96
2023-03-16T23:29:00.879Z,72.95
2023-03-16T23:31:32.778Z,73.00
2023-03-16T23:34:12.430Z,73.07
2023-03-16T23:36:44.599Z,72.97
2023-03-16T23:39:16.667Z,73.09
2023-03-16T23:41:50.722Z,73.19
2023-03-16T23:44:28.812Z,73.01
2023-03-16T23:47:00.948Z,73.12
2023-03-16T23:49:36.271Z,73.15
2023-03-16T23:52:08.447Z,73.14
2023-03-16T23:54:40.420Z,72.72
2023-03-16T23:57:13.006Z,72.72
2023-03-16T23:59:44.902Z,72.77
